sensor_id;sensor_type;location;lat;lon;timestamp;pressure;altitude;pressure_sealevel;temperature;humidity
26178;BME280;13924;47.670;10.310;2023-07-16T00:00:37;93180;;;23.5;100.0
26178;BME280;13924;47.670;10.310;2023-07-16T00:15:40;93180;;;23.5;100.0
26178;BME280;13924;47.670;10.310;2023-07-16T00:30:37;93260;;;24.2;100.0
26178;BME280;13924;47.670;10.310;2023-07-16T00:45:39;93300;;;22.7;100.0
26178;BME280;13924;47.670;10.310;2023-07-16T01:00:40;93330;;;22.8;100.0
26178;BME280;13924;47.670;10.310;2023-07-16T01:01:27;93330;;;23.0;100.0
26178;BME280;13924;47.670;10.310;2023-07-16T01:15:39;93340;;;22.6;100.0
26178;BME280;13924;47.670;10.310;2023-07-16T01:30:43;93360;;;22.5;100.0
26178;BME280;13924;47.670;10.310;2023-07-16T01:45:40;93370;;;23.1;100.0
26178;BME280;13924;47.670;10.310;2023-07-16T02:00:41;93350;;;23.1;100.0
26178;BME280;13924;47.670;10.310;2023-07-16T02:15:42;93430;;;22.3;100.0
26178;BME280;13924;47.670;10.310;2023-07-16T02:30:43;93690;;;21.5;100.0
26178;BME280;13924;47.670;10.310;2023-07-16T02:45:42;93760;;;19.7;100.0
26178;BME280;13924;47.670;10.310;2023-07-16T03:00:43;94070;;;18.8;100.0
26178;BME280;13924;47.670;10.310;2023-07-16T03:15:45;94070;;;18.8;100.0
26178;BME280;13924;47.670;10.310;2023-07-16T03:30:45;93820;;;18.7;100.0
26178;BME280;13924;47.670;10.310;2023-07-16T03:45:44;93820;;;18.9;100.0
26178;BME280;13924;47.670;10.310;2023-07-16T03:48:57;93820;;;18.9;100.0
26178;BME280;13924;47.670;10.310;2023-07-16T04:03:57;93790;;;19.0;100.0
26178;BME280;13924;47.670;10.310;2023-07-16T04:18:57;93780;;;18.9;100.0
26178;BME280;13924;47.670;10.310;2023-07-16T04:33:58;93780;;;18.9;100.0
26178;BME280;13924;47.670;10.310;2023-07-16T04:48:58;93850;;;18.7;100.0
26178;BME280;13924;47.670;10.310;2023-07-16T05:03:58;93790;;;18.8;100.0
26178;BME280;13924;47.670;10.310;2023-07-16T05:18:58;93550;;;18.7;100.0
26178;BME280;13924;47.670;10.310;2023-07-16T05:33:59;93560;;;18.7;100.0
26178;BME280;13924;47.670;10.310;2023-07-16T05:48:59;93540;;;18.4;100.0
26178;BME280;13924;47.670;10.310;2023-07-16T06:04:00;93560;;;18.6;100.0
26178;BME280;13924;47.670;10.310;2023-07-16T06:19:00;93560;;;19.0;100.0
26178;BME280;13924;47.670;10.310;2023-07-16T06:34:01;93570;;;19.0;100.0
26178;BME280;13924;47.670;10.310;2023-07-16T06:49:01;93540;;;19.8;100.0
26178;BME280;13924;47.670;10.310;2023-07-16T07:04:03;93520;;;19.7;100.0
26178;BME280;13924;47.670;10.310;2023-07-16T07:19:04;93520;;;19.7;100.0
26178;BME280;13924;47.670;10.310;2023-07-16T07:34:04;93460;;;21.4;100.0
26178;BME280;13924;47.670;10.310;2023-07-16T07:49:03;93460;;;22.5;100.0
26178;BME280;13924;47.670;10.310;2023-07-16T08:04:05;93450;;;23.1;100.0
26178;BME280;13924;47.670;10.310;2023-07-16T08:19:04;93440;;;23.3;100.0
26178;BME280;13924;47.670;10.310;2023-07-16T08:34:35;93440;;;23.3;100.0
26178;BME280;13924;47.670;10.310;2023-07-16T08:49:17;93430;;;23.7;100.0
26178;BME280;13924;47.670;10.310;2023-07-16T09:04:41;93440;;;24.0;100.0
26178;BME280;13924;47.670;10.310;2023-07-16T09:19:09;93420;;;25.1;100.0
26178;BME280;13924;47.670;10.310;2023-07-16T09:34:09;93420;;;25.5;100.0
26178;BME280;13924;47.670;10.310;2023-07-16T09:49:09;93430;;;25.7;100.0
26178;BME280;13924;47.670;10.310;2023-07-16T10:04:12;93430;;;25.7;100.0
26178;BME280;13924;47.670;10.310;2023-07-16T10:19:08;93440;;;25.6;100.0
26178;BME280;13924;47.670;10.310;2023-07-16T10:34:10;93440;;;25.6;100.0
26178;BME280;13924;47.670;10.310;2023-07-16T10:49:09;93450;;;25.5;100.0
26178;BME280;13924;47.670;10.310;2023-07-16T11:04:12;93450;;;25.5;100.0
26178;BME280;13924;47.670;10.310;2023-07-16T11:19:11;93430;;;27.2;100.0
26178;BME280;13924;47.670;10.310;2023-07-16T11:34:13;93430;;;27.6;100.0
26178;BME280;13924;47.670;10.310;2023-07-16T11:49:13;93430;;;27.6;100.0
26178;BME280;13924;47.670;10.310;2023-07-16T12:04:11;93430;;;28.2;95.6
26178;BME280;13924;47.670;10.310;2023-07-16T12:19:36;93430;;;28.2;95.6
26178;BME280;13924;47.670;10.310;2023-07-16T12:34:15;93420;;;29.7;86.8
26178;BME280;13924;47.670;10.310;2023-07-16T13:04:17;93430;;;30.2;91.3
26178;BME280;13924;47.670;10.310;2023-07-16T13:19:14;93410;;;30.8;78.3
26178;BME280;13924;47.670;10.310;2023-07-16T13:34:20;93410;;;30.8;78.3
26178;BME280;13924;47.670;10.310;2023-07-16T13:49:24;93420;;;31.0;79.6
26178;BME280;13924;47.670;10.310;2023-07-16T14:04:18;93410;;;30.9;79.9
26178;BME280;13924;47.670;10.310;2023-07-16T14:19:28;93410;;;30.9;79.9
26178;BME280;13924;47.670;10.310;2023-07-16T14:34:17;93390;;;28.1;88.2
26178;BME280;13924;47.670;10.310;2023-07-16T14:49:17;93390;;;28.6;93.8
26178;BME280;13924;47.670;10.310;2023-07-16T15:04:24;93390;;;28.6;93.8
26178;BME280;13924;47.670;10.310;2023-07-16T15:19:21;93380;;;28.9;92.1
26178;BME280;13924;47.670;10.310;2023-07-16T15:34:20;93370;;;27.7;99.8
26178;BME280;13924;47.670;10.310;2023-07-16T15:49:42;93370;;;27.7;99.8
26178;BME280;13924;47.670;10.310;2023-07-16T16:04:30;93370;;;27.9;100.0
26178;BME280;13924;47.670;10.310;2023-07-16T16:19:23;93360;;;27.7;100.0
26178;BME280;13924;47.670;10.310;2023-07-16T16:34:21;93360;;;28.5;99.0
26178;BME280;13924;47.670;10.310;2023-07-16T16:49:22;93360;;;27.8;100.0
26178;BME280;13924;47.670;10.310;2023-07-16T17:04:23;93370;;;27.7;100.0
26178;BME280;13924;47.670;10.310;2023-07-16T17:19:26;93370;;;27.7;100.0
26178;BME280;13924;47.670;10.310;2023-07-16T17:34:28;93390;;;28.3;100.0
26178;BME280;13924;47.670;10.310;2023-07-16T17:49:36;93370;;;28.2;100.0
26178;BME280;13924;47.670;10.310;2023-07-16T18:04:30;93370;;;27.7;100.0
26178;BME280;13924;47.670;10.310;2023-07-16T18:19:26;93380;;;27.5;100.0
26178;BME280;13924;47.670;10.310;2023-07-16T18:34:29;93380;;;27.2;100.0
26178;BME280;13924;47.670;10.310;2023-07-16T18:49:29;93370;;;26.7;100.0
26178;BME280;13924;47.670;10.310;2023-07-16T19:04:28;93370;;;26.0;100.0
26178;BME280;13924;47.670;10.310;2023-07-16T19:19:37;93380;;;26.0;100.0
26178;BME280;13924;47.670;10.310;2023-07-16T20:01:33;93410;;;25.7;100.0
26178;BME280;13924;47.670;10.310;2023-07-16T20:04:30;93450;;;25.2;100.0
26178;BME280;13924;47.670;10.310;2023-07-16T20:19:29;93440;;;23.6;100.0
26178;BME280;13924;47.670;10.310;2023-07-16T20:34:31;93520;;;23.2;100.0
26178;BME280;13924;47.670;10.310;2023-07-16T20:49:29;93510;;;22.9;100.0
26178;BME280;13924;47.670;10.310;2023-07-16T21:04:30;93460;;;23.4;100.0
26178;BME280;13924;47.670;10.310;2023-07-16T21:19:31;93500;;;22.2;100.0
26178;BME280;13924;47.670;10.310;2023-07-16T21:34:32;93500;;;22.6;100.0
26178;BME280;13924;47.670;10.310;2023-07-16T21:49:34;93480;;;23.3;100.0
26178;BME280;13924;47.670;10.310;2023-07-16T22:00:34;93500;;;22.4;100.0
26178;BME280;13924;47.670;10.310;2023-07-16T22:15:36;93500;;;22.4;100.0
26178;BME280;13924;47.670;10.310;2023-07-16T22:30:37;93550;;;22.2;100.0
26178;BME280;13924;47.670;10.310;2023-07-16T22:45:42;93550;;;22.2;100.0
26178;BME280;13924;47.670;10.310;2023-07-16T23:00:40;93520;;;22.5;100.0
26178;BME280;13924;47.670;10.310;2023-07-16T23:15:36;93670;;;21.1;100.0
26178;BME280;13924;47.670;10.310;2023-07-16T23:30:38;93600;;;21.5;100.0
26178;BME280;13924;47.670;10.310;2023-07-16T23:45:39;93630;;;20.8;100.0
